CFN6 weather

Primrose Airport
Primrose, Alberta, Canada

Public forecast

Using degrees Celsius for public forecast. Weather courtesy of forecast.io.

METAR (pilot weather report)

Closest report is CFB Cold Lake, 65.9 nm (122.0 km) SSE. Retrieved 2019/05/20 07:00 UTC (1 hour ago):

CYOD 200700Z 15005KT 15SM SKC 09/M02 A3011 RMK SLP210

TAF (pilot weather forecast)

Closest forecast is CFB Cold Lake, 65.9 nm (122.0 km) SSE. Retrieved 2019/05/20 06:35 UTC (2 hours ago):

TAF CYOD 200530Z 2006/2106 VRB03KT P6SM SKC BECMG 2015/2017 14010KT BECMG 2103/2105 VRB03KT RMK NXT FCST BY 201200Z